Time;durP1;ratioP1;P1;durP2;ratioP2;P2;SDS_P1;SDS_P2;PMS_P1;PMS_P2;Temp;Humidity;BMP_temperature;BMP_pressure;BME280_temperature;BME280_humidity;BME280_pressure;Samples;Min_cycle;Max_cycle;Signal;HPM_P1;HPM_P2
2021/11/20 00:01:12;;;;;;;22.30;18.05;;;21.30;99.90;;;;;;5042239;28;20103;-75
2021/11/20 00:03:43;;;;;;;20.23;16.77;;;21.20;99.90;;;;;;5057615;28;20033;-76
2021/11/20 00:06:17;;;;;;;24.17;17.88;;;21.30;99.90;;;;;;5074363;28;20028;-75
2021/11/20 00:08:45;;;;;;;25.42;16.55;;;21.30;99.90;;;;;;5059042;28;20104;-76
2021/11/20 00:11:15;;;;;;;20.77;16.30;;;21.20;99.90;;;;;;5075354;28;20043;-76
2021/11/20 00:13:43;;;;;;;21.08;17.15;;;21.20;99.90;;;;;;5058592;28;20033;-74
2021/11/20 00:16:12;;;;;;;19.65;16.65;;;21.30;99.90;;;;;;5074422;28;20039;-75
2021/11/20 00:18:40;;;;;;;21.70;17.50;;;21.40;99.90;;;;;;5073915;28;20529;-74
2021/11/20 00:21:13;;;;;;;19.95;15.93;;;21.70;99.90;;;;;;5075437;28;20040;-74
2021/11/20 00:23:45;;;;;;;19.05;16.25;;;21.80;99.90;;;;;;5074201;28;20212;-76
2021/11/20 00:26:15;;;;;;;19.73;16.25;;;22.00;99.90;;;;;;5074155;28;20021;-74
2021/11/20 00:29:43;;;;;;;23.92;16.42;;;22.10;99.90;;;;;;5075117;28;20384;-78
2021/11/20 00:31:53;;;;;;;18.42;15.82;;;22.10;99.90;;;;;;5067861;28;20116;-75
2021/11/20 00:34:24;;;;;;;19.38;16.73;;;22.10;99.90;;;;;;5075139;28;20063;-74
2021/11/20 00:36:53;;;;;;;22.13;17.27;;;22.10;99.90;;;;;;5075484;28;20534;-80
2021/11/20 00:39:24;;;;;;;22.15;16.30;;;22.20;99.90;;;;;;5074401;28;20538;-78
2021/11/20 00:41:55;;;;;;;25.85;16.92;;;22.10;99.90;;;;;;5074843;28;20029;-75
2021/11/20 00:44:23;;;;;;;18.95;16.83;;;22.20;99.90;;;;;;5074734;28;20016;-75
2021/11/20 00:46:51;;;;;;;20.77;17.20;;;22.20;99.90;;;;;;5073545;28;20021;-78
2021/11/20 00:49:20;;;;;;;25.20;17.27;;;22.20;99.90;;;;;;5073803;28;20033;-74
2021/11/20 00:51:49;;;;;;;24.17;16.13;;;22.20;99.90;;;;;;5073875;28;20035;-77
2021/11/20 00:54:18;;;;;;;24.13;16.63;;;22.10;99.90;;;;;;5057172;28;20060;-77
2021/11/20 00:56:45;;;;;;;23.20;16.13;;;22.00;99.90;;;;;;5074592;28;20021;-76
2021/11/20 00:59:13;;;;;;;21.85;16.80;;;21.90;99.90;;;;;;5073056;28;20373;-82
2021/11/20 01:01:49;;;;;;;20.50;16.02;;;21.80;99.90;;;;;;5056326;28;20032;-75
2021/11/20 01:04:18;;;;;;;18.95;15.98;;;21.90;99.90;;;;;;5074323;28;20023;-76
2021/11/20 01:06:46;;;;;;;20.38;16.50;;;21.90;99.90;;;;;;5074936;28;20016;-76
2021/11/20 01:09:16;;;;;;;22.52;16.85;;;22.00;99.90;;;;;;5072949;28;20107;-77
2021/11/20 01:11:57;;;;;;;20.50;16.70;;;22.00;99.90;;;;;;5074205;28;20107;-77
2021/11/20 01:14:27;;;;;;;;;;;22.30;99.90;;;;;;5074533;28;20036;-77
2021/11/20 01:16:56;;;;;;;22.23;17.45;;;22.20;99.90;;;;;;5074033;28;19905;-75
2021/11/20 01:19:27;;;;;;;21.75;17.60;;;22.10;99.90;;;;;;5074105;28;20048;-77
2021/11/20 01:21:55;;;;;;;22.80;16.58;;;22.20;99.90;;;;;;5074022;28;20082;-76
2021/11/20 01:24:22;;;;;;;21.30;16.77;;;22.20;99.90;;;;;;5072737;28;20062;-77
2021/11/20 01:26:53;;;;;;;20.17;16.65;;;22.20;99.90;;;;;;5074058;28;20024;-76
2021/11/20 01:29:21;;;;;;;23.63;17.20;;;22.30;99.90;;;;;;5074092;28;20111;-77
2021/11/20 01:31:52;;;;;;;22.30;16.92;;;22.30;99.90;;;;;;5072758;28;20468;-77
2021/11/20 01:34:22;;;;;;;21.80;16.30;;;22.30;99.90;;;;;;5073643;28;20032;-76
2021/11/20 01:36:52;;;;;;;26.70;16.40;;;22.30;99.90;;;;;;5073213;28;20063;-77
2021/11/20 01:39:26;;;;;;;22.00;16.70;;;22.10;99.90;;;;;;5072661;28;20028;-77
2021/11/20 01:42:05;;;;;;;25.52;15.80;;;22.10;99.90;;;;;;5072670;28;20030;-76
2021/11/20 01:44:35;;;;;;;21.65;16.80;;;22.10;99.90;;;;;;5074044;28;20036;-76
2021/11/20 01:47:25;;;;;;;27.17;18.52;;;21.80;99.90;;;;;;5073907;28;20052;-76
2021/11/20 01:50:04;;;;;;;36.65;19.90;;;21.30;99.90;;;;;;5072608;28;20115;-77
2021/11/20 01:52:44;;;;;;;25.63;18.27;;;21.50;99.90;;;;;;5073724;28;20504;-78
2021/11/20 01:55:54;;;;;;;30.17;19.13;;;21.80;99.90;;;;;;5072617;28;20056;-78
2021/11/20 01:58:29;;;;;;;26.55;19.35;;;21.90;99.90;;;;;;5039844;28;20028;-77
2021/11/20 02:01:15;;;;;;;26.52;17.40;;;22.00;99.90;;;;;;5072893;28;20477;-78
2021/11/20 02:03:55;;;;;;;21.92;18.17;;;21.70;99.90;;;;;;5072560;28;20111;-78
2021/11/20 02:06:35;;;;;;;30.70;18.80;;;21.50;99.90;;;;;;5073860;28;20442;-78
2021/11/20 02:09:16;;;;;;;23.70;18.30;;;21.30;99.90;;;;;;5072576;28;20021;-78
2021/11/20 02:12:10;;;;;;;23.35;17.30;;;21.20;99.90;;;;;;5074064;28;20492;-78
2021/11/20 02:14:40;;;;;;;21.55;16.50;;;21.10;99.90;;;;;;5059159;28;20056;-77
2021/11/20 02:17:11;;;;;;;24.30;17.88;;;21.10;99.90;;;;;;5078226;28;20024;-76
2021/11/20 02:19:47;;;;;;;24.52;17.42;;;20.90;99.90;;;;;;5076570;28;20044;-77
2021/11/20 02:22:44;;;;;;;26.38;17.77;;;21.00;99.90;;;;;;5077965;28;20032;-77
2021/11/20 02:25:13;;;;;;;22.80;19.00;;;21.00;99.90;;;;;;5077109;28;20028;-78
2021/11/20 02:27:52;;;;;;;23.25;18.95;;;21.00;99.90;;;;;;5078228;28;20029;-77
2021/11/20 02:30:19;;;;;;;25.48;20.27;;;20.90;99.90;;;;;;5077429;28;20071;-77
2021/11/20 02:32:54;;;;;;;25.50;20.83;;;20.90;99.90;;;;;;5076699;28;20024;-77
2021/11/20 02:35:32;;;;;;;25.70;21.67;;;20.90;99.90;;;;;;5078751;28;20119;-78
2021/11/20 02:38:10;;;;;;;30.40;21.50;;;20.80;99.90;;;;;;5083927;28;20388;-77
2021/11/20 02:41:03;;;;;;;34.53;24.10;;;20.90;99.90;;;;;;5081716;28;20028;-76
2021/11/20 02:43:52;;;;;;;30.27;23.25;;;20.60;99.90;;;;;;5085194;28;20394;-77
2021/11/20 02:46:23;;;;;;;35.85;25.30;;;20.40;99.90;;;;;;5081117;28;20032;-77
2021/11/20 02:48:52;;;;;;;32.33;23.42;;;20.30;99.90;;;;;;5077476;28;20119;-78
2021/11/20 02:51:27;;;;;;;34.15;23.67;;;20.40;99.90;;;;;;5077802;28;20036;-75
2021/11/20 02:54:14;;;;;;;29.55;23.33;;;20.40;99.90;;;;;;5075716;28;20122;-77
2021/11/20 02:56:50;;;;;;;31.40;23.80;;;20.30;99.90;;;;;;5076754;28;20061;-75
2021/11/20 02:59:18;;;;;;;28.90;23.77;;;;;;;;;;5078261;28;20108;-77
2021/11/20 03:01:47;;;;;;;30.08;22.10;;;20.10;99.90;;;;;;5076911;28;20021;-76
2021/11/20 03:04:17;;;;;;;27.45;21.83;;;20.20;99.90;;;;;;5076923;28;20311;-77
2021/11/20 03:06:47;;;;;;;24.77;21.42;;;20.10;99.90;;;;;;5075400;28;20078;-77
2021/11/20 03:09:14;;;;;;;30.42;21.42;;;20.00;99.90;;;;;;5076722;28;20028;-76
2021/11/20 03:11:51;;;;;;;25.35;21.77;;;20.00;99.90;;;;;;5078698;28;20055;-78
2021/11/20 03:14:20;;;;;;;26.45;22.98;;;19.90;99.90;;;;;;5077867;28;20190;-77
2021/11/20 03:16:54;;;;;;;26.00;23.38;;;20.00;99.90;;;;;;5075245;28;20033;-76
2021/11/20 03:19:23;;;;;;;23.95;21.65;;;20.10;99.90;;;;;;5074812;28;20044;-77
2021/11/20 03:21:55;;;;;;;27.80;22.02;;;20.10;99.90;;;;;;5075238;28;20028;-76
2021/11/20 03:24:25;;;;;;;23.65;20.40;;;20.10;99.90;;;;;;5075244;28;20117;-76
2021/11/20 03:26:53;;;;;;;21.23;19.10;;;20.30;99.90;;;;;;5076701;28;20070;-75
2021/11/20 03:29:23;;;;;;;21.52;19.27;;;20.30;99.90;;;;;;5075508;28;20040;-76
2021/11/20 03:31:52;;;;;;;20.98;18.77;;;20.20;99.90;;;;;;5075763;28;20443;-75
2021/11/20 03:34:22;;;;;;;19.55;17.75;;;20.00;99.90;;;;;;5075029;28;20515;-77
2021/11/20 03:36:50;;;;;;;24.33;19.50;;;20.00;99.90;;;;;;5075336;28;20038;-76
2021/11/20 03:39:18;;;;;;;20.88;18.70;;;19.90;99.90;;;;;;5076193;28;20074;-73
2021/11/20 03:41:47;;;;;;;20.88;18.80;;;20.10;99.90;;;;;;5074806;28;20040;-73
2021/11/20 03:44:17;;;;;;;21.08;18.90;;;20.30;99.90;;;;;;5075220;28;20033;-72
2021/11/20 03:46:45;;;;;;;22.27;19.80;;;20.30;99.90;;;;;;5076331;28;20478;-76
2021/11/20 03:49:13;;;;;;;20.75;18.45;;;20.30;99.90;;;;;;5076237;28;20056;-75
2021/11/20 03:51:40;;;;;;;21.58;17.27;;;20.30;99.90;;;;;;5074666;28;20082;-74
2021/11/20 03:54:08;;;;;;;19.50;17.08;;;20.40;99.90;;;;;;5075665;28;20488;-74
2021/11/20 03:56:36;;;;;;;17.13;15.32;;;20.50;99.90;;;;;;5075051;28;20016;-73
2021/11/20 03:59:05;;;;;;;17.00;15.50;;;20.40;99.90;;;;;;5074975;28;20383;-72
2021/11/20 04:01:34;;;;;;;16.77;15.15;;;20.40;99.90;;;;;;5074291;28;20021;-74
2021/11/20 04:04:01;;;;;;;16.42;14.75;;;20.20;99.90;;;;;;5074679;28;20037;-73
2021/11/20 04:06:29;;;;;;;15.15;13.65;;;20.30;99.90;;;;;;5075662;28;20054;-74
2021/11/20 04:08:56;;;;;;;17.13;15.70;;;20.20;99.90;;;;;;5075450;28;20032;-73
2021/11/20 04:11:30;;;;;;;16.73;15.32;;;20.20;99.90;;;;;;5074142;28;20408;-73
2021/11/20 04:14:01;;;;;;;16.58;15.10;;;20.20;99.90;;;;;;5074363;28;20115;-73
2021/11/20 04:16:29;;;;;;;15.32;14.05;;;20.20;99.90;;;;;;5075744;28;20030;-73
2021/11/20 04:18:57;;;;;;;14.52;13.13;;;20.00;99.90;;;;;;5075793;28;20071;-73
2021/11/20 04:21:25;;;;;;;13.75;12.40;;;20.00;99.90;;;;;;5075257;28;20141;-74
2021/11/20 04:23:55;;;;;;;12.98;11.85;;;20.20;99.90;;;;;;5074075;28;20553;-75
2021/11/20 04:26:26;;;;;;;12.90;11.68;;;20.30;99.90;;;;;;5074322;28;20103;-74
2021/11/20 04:28:55;;;;;;;12.88;11.88;;;20.30;99.90;;;;;;5075711;28;20363;-74
2021/11/20 04:31:23;;;;;;;14.32;13.20;;;20.10;99.90;;;;;;5076527;28;20111;-72
2021/11/20 04:33:54;;;;;;;14.40;13.13;;;20.00;99.90;;;;;;5075265;28;20089;-74
2021/11/20 04:36:22;;;;;;;14.27;13.13;;;19.90;99.90;;;;;;5072917;28;20025;-71
2021/11/20 04:38:49;;;;;;;15.98;14.43;;;19.90;99.90;;;;;;5073372;28;20041;-72
2021/11/20 04:41:18;;;;;;;15.10;13.70;;;19.90;99.90;;;;;;5073810;28;20021;-73
2021/11/20 04:43:47;;;;;;;14.75;13.55;;;20.00;99.90;;;;;;5075220;28;20028;-72
2021/11/20 04:46:17;;;;;;;14.20;13.20;;;19.80;99.90;;;;;;5074020;28;20032;-71
2021/11/20 04:48:44;;;;;;;12.93;12.00;;;19.80;99.90;;;;;;5075080;28;20020;-69
2021/11/20 04:51:12;;;;;;;13.00;12.02;;;20.00;99.90;;;;;;5073415;28;20021;-72
2021/11/20 04:53:42;;;;;;;12.40;11.30;;;20.40;99.90;;;;;;5074180;28;20043;-71
2021/11/20 04:56:11;;;;;;;12.60;11.60;;;20.60;99.90;;;;;;5074680;28;20021;-71
2021/11/20 04:58:40;;;;;;;13.43;12.15;;;20.40;99.90;;;;;;5075325;28;20384;-71
2021/11/20 05:01:09;;;;;;;12.15;10.93;;;20.70;99.90;;;;;;5058149;28;20552;-73
2021/11/20 05:03:40;;;;;;;12.05;10.90;;;20.80;99.90;;;;;;5074830;28;20438;-71
2021/11/20 05:06:08;;;;;;;11.07;10.20;;;20.60;99.90;;;;;;5072974;28;20078;-71
2021/11/20 05:08:36;;;;;;;11.35;10.55;;;20.60;99.90;;;;;;5074399;28;20535;-71
2021/11/20 05:11:04;;;;;;;11.10;10.30;;;20.70;99.90;;;;;;5056701;28;20029;-71
2021/11/20 05:13:32;;;;;;;10.60;10.00;;;20.60;99.90;;;;;;5074280;28;20017;-72
2021/11/20 05:15:59;;;;;;;10.75;10.05;;;20.60;99.90;;;;;;5072679;28;20123;-72
2021/11/20 05:18:28;;;;;;;10.52;9.93;;;20.30;99.90;;;;;;5072845;28;20070;-71
2021/11/20 05:20:59;;;;;;;10.88;9.82;;;20.30;99.90;;;;;;5072319;28;20070;-70
2021/11/20 05:23:29;;;;;;;10.60;9.82;;;20.30;99.90;;;;;;5072578;28;20025;-69
2021/11/20 05:26:00;;;;;;;9.63;9.13;;;20.30;99.90;;;;;;5072800;28;20551;-71
2021/11/20 05:28:27;;;;;;;9.68;9.07;;;20.30;99.90;;;;;;5072814;28;20024;-71
2021/11/20 05:30:55;;;;;;;9.90;9.20;;;20.40;99.90;;;;;;5073916;28;20044;-71
2021/11/20 05:33:36;;;;;;;10.18;9.57;;;20.40;99.90;;;;;;5073745;28;20389;-71
2021/11/20 05:36:05;;;;;;;9.93;9.23;;;20.30;99.90;;;;;;5072588;28;20023;-71
2021/11/20 05:38:33;;;;;;;10.68;9.98;;;20.10;99.90;;;;;;5073315;28;20063;-71
2021/11/20 05:41:01;;;;;;;10.95;10.10;;;19.80;99.90;;;;;;5079034;28;20048;-72
2021/11/20 05:43:29;;;;;;;10.80;10.20;;;19.70;99.90;;;;;;5073564;28;20020;-73
2021/11/20 05:46:02;;;;;;;11.82;10.90;;;19.70;99.90;;;;;;5073457;28;20024;-71
2021/11/20 05:48:29;;;;;;;11.27;10.68;;;19.80;99.90;;;;;;5073442;28;20477;-70
2021/11/20 05:50:57;;;;;;;11.27;10.57;;;19.90;99.90;;;;;;5073235;28;20389;-71
2021/11/20 05:53:26;;;;;;;11.98;10.98;;;19.80;99.90;;;;;;5073301;28;20465;-72
2021/11/20 05:55:56;;;;;;;11.70;11.00;;;19.80;99.90;;;;;;5072981;28;20181;-73
2021/11/20 05:58:25;;;;;;;11.98;11.27;;;19.50;99.90;;;;;;5073766;28;20027;-73
2021/11/20 06:01:00;;;;;;;12.00;11.20;;;19.30;99.90;;;;;;5072036;28;20024;-73
2021/11/20 06:03:29;;;;;;;11.20;10.50;;;19.20;99.90;;;;;;5072003;28;20024;-73
2021/11/20 06:05:57;;;;;;;12.18;11.18;;;19.30;99.90;;;;;;5073322;28;20017;-74
2021/11/20 06:08:25;;;;;;;12.18;11.10;;;19.20;99.90;;;;;;5073442;28;20106;-71
2021/11/20 06:10:55;;;;;;;11.02;10.45;;;19.20;99.90;;;;;;5071804;28;20017;-72
2021/11/20 06:13:24;;;;;;;11.43;10.60;;;19.10;99.90;;;;;;5073285;28;20017;-74
2021/11/20 06:15:53;;;;;;;11.55;10.85;;;19.00;99.90;;;;;;5055267;28;20032;-72
2021/11/20 06:18:21;;;;;;;11.98;10.98;;;19.00;99.90;;;;;;5072968;28;20040;-72
2021/11/20 06:20:51;;;;;;;11.32;10.52;;;19.00;99.90;;;;;;5071999;28;20032;-73
2021/11/20 06:23:20;;;;;;;11.10;10.50;;;18.90;99.90;;;;;;5071937;28;20032;-72
2021/11/20 06:25:48;;;;;;;11.25;10.57;;;18.90;99.90;;;;;;5071802;28;20016;-71
2021/11/20 06:28:15;;;;;;;11.30;10.50;;;18.80;99.90;;;;;;5073289;28;20079;-70
2021/11/20 06:30:43;;;;;;;12.18;11.18;;;18.80;99.90;;;;;;5073171;28;20500;-73
2021/11/20 06:33:12;;;;;;;11.90;11.00;;;18.90;99.90;;;;;;5073163;28;20067;-76
2021/11/20 06:35:40;;;;;;;11.93;11.10;;;18.70;99.90;;;;;;5071917;28;20132;-74
2021/11/20 06:38:07;;;;;;;11.82;10.98;;;18.70;99.90;;;;;;5072611;28;20520;-75
2021/11/20 06:40:39;;;;;;;11.70;10.93;;;18.70;99.90;;;;;;5073429;28;20107;-75
2021/11/20 06:43:08;;;;;;;11.95;11.23;;;18.70;99.90;;;;;;5072062;28;20029;-74
2021/11/20 06:45:42;;;;;;;12.35;11.48;;;18.60;99.90;;;;;;5073460;28;20016;-75
2021/11/20 06:48:11;;;;;;;12.63;11.73;;;18.90;99.90;;;;;;5072294;28;20032;-75
2021/11/20 06:50:40;;;;;;;13.30;12.10;;;18.60;99.90;;;;;;5072146;28;20024;-74
2021/11/20 06:53:10;;;;;;;12.93;12.02;;;18.60;99.90;;;;;;5072331;28;20032;-75
2021/11/20 06:55:39;;;;;;;12.90;12.03;;;18.50;99.90;;;;;;5072297;28;20029;-77
2021/11/20 07:00:57;;;;;;;12.88;11.98;;;18.60;99.90;;;;;;5076012;28;20081;-74
2021/11/20 07:03:29;;;;;;;12.30;11.40;;;18.60;99.90;;;;;;5075560;28;20115;-78
2021/11/20 07:06:08;;;;;;;12.60;11.60;;;18.60;99.90;;;;;;5077230;28;20046;-75
2021/11/20 07:08:35;;;;;;;12.70;11.90;;;18.60;99.90;;;;;;5059421;28;20362;-77
2021/11/20 07:11:04;;;;;;;12.63;11.90;;;18.60;99.90;;;;;;5077638;28;20017;-77
2021/11/20 07:13:38;;;;;;;12.40;11.60;;;18.50;99.90;;;;;;5076512;28;20032;-81
2021/11/20 07:16:08;;;;;;;12.25;11.32;;;18.60;99.90;;;;;;5078141;28;20485;-76
2021/11/20 07:18:41;;;;;;;11.60;11.00;;;18.50;99.90;;;;;;5077692;28;20413;-77
2021/11/20 07:21:10;;;;;;;11.57;10.95;;;18.50;99.90;;;;;;5076260;28;20021;-78
2021/11/20 07:23:40;;;;;;;12.30;11.50;;;18.40;99.90;;;;;;5076031;28;20039;-80
2021/11/20 07:26:09;;;;;;;12.27;11.53;;;18.40;99.90;;;;;;5059245;28;20044;-78
2021/11/20 07:28:37;;;;;;;12.60;11.70;;;18.40;99.90;;;;;;5077939;28;20028;-77
2021/11/20 07:31:05;;;;;;;12.50;11.90;;;18.30;99.90;;;;;;5078030;28;20078;-74
2021/11/20 07:33:33;;;;;;;11.80;11.10;;;18.40;99.90;;;;;;5076542;28;20082;-78
2021/11/20 07:36:03;;;;;;;12.30;11.40;;;18.40;99.90;;;;;;5075089;28;20531;-78
2021/11/20 07:38:37;;;;;;;12.32;11.20;;;18.40;99.90;;;;;;5078461;28;20024;-79
2021/11/20 07:41:06;;;;;;;11.75;10.90;;;18.50;99.90;;;;;;5076109;28;20033;-80
2021/11/20 07:43:34;;;;;;;11.93;11.10;;;18.50;99.90;;;;;;5058945;28;20032;-74
2021/11/20 07:46:09;;;;;;;12.38;11.68;;;18.40;99.90;;;;;;5075017;28;20489;-85
2021/11/20 07:48:37;;;;;;;12.60;11.70;;;18.40;99.90;;;;;;5077933;28;20359;-79
2021/11/20 07:51:07;;;;;;;12.98;11.80;;;18.50;99.90;;;;;;5080916;28;20070;-76
2021/11/20 07:53:35;;;;;;;13.23;12.20;;;18.30;99.90;;;;;;5081035;28;20025;-79
2021/11/20 07:56:03;;;;;;;13.45;12.52;;;18.10;99.90;;;;;;5081667;28;20039;-79
2021/11/20 07:58:30;;;;;;;13.60;12.43;;;18.10;99.90;;;;;;5082361;28;20098;-80
2021/11/20 08:00:58;;;;;;;12.90;12.05;;;18.10;99.90;;;;;;5080162;28;20024;-79
2021/11/20 08:03:32;;;;;;;13.32;12.38;;;18.10;99.90;;;;;;5076434;28;20029;-79
2021/11/20 08:05:59;;;;;;;13.48;12.45;;;18.10;99.90;;;;;;5076895;28;20028;-78
2021/11/20 08:08:26;;;;;;;14.30;13.20;;;18.00;99.90;;;;;;5075788;28;20494;-76
2021/11/20 08:10:54;;;;;;;14.18;13.27;;;17.90;99.90;;;;;;5073784;28;20478;-75
2021/11/20 08:13:22;;;;;;;13.88;13.07;;;17.90;99.90;;;;;;5076357;28;20050;-77
2021/11/20 08:15:49;;;;;;;14.32;13.63;;;18.20;99.90;;;;;;5075734;28;20031;-75
2021/11/20 08:18:17;;;;;;;14.15;13.40;;;18.00;99.90;;;;;;5078810;28;20102;-79
2021/11/20 08:20:47;;;;;;;13.90;13.20;;;18.00;99.90;;;;;;5078847;28;20021;-78
2021/11/20 08:23:14;;;;;;;13.25;12.50;;;18.10;99.90;;;;;;5077502;28;20045;-76
2021/11/20 08:25:45;;;;;;;13.60;12.80;;;18.00;99.90;;;;;;5074983;28;20085;-79
2021/11/20 08:28:18;;;;;;;13.77;12.90;;;18.00;99.90;;;;;;5057011;28;20115;-77
2021/11/20 08:30:46;;;;;;;13.00;12.30;;;17.90;99.90;;;;;;5074620;28;20055;-78
2021/11/20 08:33:15;;;;;;;13.35;12.38;;;18.00;99.90;;;;;;5074916;28;20025;-79
2021/11/20 08:35:42;;;;;;;13.13;12.40;;;18.10;99.90;;;;;;5075949;28;20103;-80
2021/11/20 08:38:12;;;;;;;13.40;12.50;;;18.00;99.90;;;;;;5074860;28;20021;-80
2021/11/20 08:40:41;;;;;;;13.70;12.90;;;18.00;99.90;;;;;;5075845;28;20519;-78
2021/11/20 08:43:08;;;;;;;14.20;13.30;;;17.90;99.90;;;;;;5075536;28;20025;-77
2021/11/20 08:45:39;;;;;;;14.75;13.75;;;18.00;99.90;;;;;;5074688;28;20032;-77
2021/11/20 08:48:07;;;;;;;13.80;12.90;;;17.90;99.90;;;;;;5074739;28;20024;-77
2021/11/20 08:59:32;;;;;;;15.30;14.40;;;17.80;99.90;;;;;;5075562;28;20119;-78
2021/11/20 09:02:11;;;;;;;15.60;14.40;;;17.70;99.90;;;;;;5074921;28;20033;-78
2021/11/20 09:05:11;;;;;;;14.73;13.90;;;17.60;99.90;;;;;;5074870;28;20473;-78
2021/11/20 09:08:11;;;;;;;15.27;14.40;;;17.60;99.90;;;;;;5050315;28;20379;-78
2021/11/20 09:10:56;;;;;;;14.90;14.00;;;17.70;99.90;;;;;;5073329;28;20554;-78
2021/11/20 09:13:30;;;;;;;14.88;13.98;;;17.80;99.90;;;;;;5074536;28;20056;-78
2021/11/20 09:16:21;;;;;;;14.35;13.65;;;17.80;99.90;;;;;;5074470;28;20093;-77
2021/11/20 09:18:49;;;;;;;15.65;14.55;;;17.90;99.90;;;;;;5072530;28;20558;-78
2021/11/20 09:21:17;;;;;;;14.98;14.07;;;17.90;99.90;;;;;;5073049;28;20025;-78
2021/11/20 09:23:45;;;;;;;14.45;13.73;;;17.90;99.90;;;;;;5072484;28;20111;-77
2021/11/20 09:26:15;;;;;;;14.63;13.73;;;17.90;99.90;;;;;;5074544;28;20066;-80
2021/11/20 09:28:43;;;;;;;14.50;13.60;;;17.80;99.90;;;;;;5074585;28;20048;-80
2021/11/20 09:31:11;;;;;;;14.55;13.68;;;17.80;99.90;;;;;;5057075;28;20109;-80
2021/11/20 09:33:39;;;;;;;15.15;14.23;;;17.80;99.90;;;;;;5074046;28;20035;-81
2021/11/20 09:36:09;;;;;;;15.15;14.25;;;17.80;99.90;;;;;;5074370;28;20029;-82
2021/11/20 09:38:38;;;;;;;14.40;13.63;;;17.80;99.90;;;;;;5074105;28;20551;-82
2021/11/20 09:41:28;;;;;;;15.00;14.00;;;17.80;99.90;;;;;;5075607;28;20031;-84
2021/11/20 09:43:59;;;;;;;14.57;13.87;;;17.80;99.90;;;;;;5072191;28;20101;-85
2021/11/20 09:46:44;;;;;;;15.02;14.05;;;17.80;99.90;;;;;;5075536;28;20485;-86
2021/11/20 09:49:18;;;;;;;15.05;14.05;;;17.90;99.90;;;;;;5074046;28;20056;-81
2021/11/20 09:51:51;;;;;;;14.88;13.80;;;17.80;99.90;;;;;;5076127;28;20016;-79
2021/11/20 09:54:22;;;;;;;14.25;13.32;;;17.80;99.90;;;;;;5076096;28;20021;-81
2021/11/20 09:56:57;;;;;;;;;;;17.80;99.90;;;;;;5074777;28;20025;-81
2021/11/20 09:59:33;;;;;;;15.27;14.20;;;17.80;99.90;;;;;;5073295;28;19904;-80
2021/11/20 10:02:09;;;;;;;14.93;13.93;;;17.90;99.90;;;;;;5072878;28;20028;-82
2021/11/20 10:05:02;;;;;;;14.23;13.30;;;17.90;99.90;;;;;;5073942;28;20044;-81
2021/11/20 10:07:43;;;;;;;14.60;13.70;;;17.90;99.90;;;;;;5072955;28;20025;-80
2021/11/20 10:10:16;;;;;;;13.55;12.73;;;17.80;99.90;;;;;;5074701;28;20055;-82
2021/11/20 10:13:04;;;;;;;14.48;13.18;;;17.90;99.90;;;;;;5074345;28;20020;-82
2021/11/20 10:15:35;;;;;;;15.98;14.27;;;17.80;99.90;;;;;;5073334;28;20070;-80
2021/11/20 10:18:24;;;;;;;14.70;13.30;;;17.80;99.90;;;;;;5073778;28;20075;-80
2021/11/20 10:20:54;;;;;;;14.45;13.40;;;17.70;99.90;;;;;;5073506;28;20103;-80
2021/11/20 10:23:43;;;;;;;14.60;13.80;;;17.70;99.90;;;;;;5073012;28;20439;-81
2021/11/20 10:26:13;;;;;;;14.40;13.52;;;17.60;99.90;;;;;;5074171;28;20029;-80
2021/11/20 10:29:02;;;;;;;15.15;14.23;;;17.60;99.90;;;;;;5072860;28;20020;-81
2021/11/20 10:31:44;;;;;;;15.43;14.45;;;17.50;99.90;;;;;;5074396;28;20100;-80
2021/11/20 10:34:29;;;;;;;15.32;14.60;;;17.50;99.90;;;;;;5057012;28;20031;-79
2021/11/20 10:37:05;;;;;;;16.10;14.90;;;17.40;99.90;;;;;;5076902;28;20384;-81
2021/11/20 10:39:35;;;;;;;16.50;15.30;;;17.40;99.90;;;;;;5078884;28;20031;-81
2021/11/20 10:42:19;;;;;;;16.30;15.40;;;17.40;99.90;;;;;;5076805;28;20019;-82
2021/11/20 10:44:53;;;;;;;16.20;15.20;;;17.20;99.90;;;;;;5074307;28;20039;-78
2021/11/20 10:47:26;;;;;;;16.05;15.20;;;17.30;99.90;;;;;;5076812;28;20031;-80
2021/11/20 10:50:17;;;;;;;15.80;14.90;;;17.30;99.90;;;;;;5078570;28;20024;-79
2021/11/20 10:52:48;;;;;;;16.20;15.30;;;17.30;99.90;;;;;;5077640;28;20032;-77
2021/11/20 10:55:39;;;;;;;16.48;15.65;;;17.30;99.90;;;;;;5076297;28;20020;-79
2021/11/20 10:58:16;;;;;;;16.23;15.30;;;17.30;99.90;;;;;;5076376;28;20030;-77
2021/11/20 11:01:04;;;;;;;16.45;15.50;;;17.30;99.90;;;;;;5077213;28;20078;-78
2021/11/20 11:03:39;;;;;;;16.38;15.57;;;17.30;99.90;;;;;;5077291;28;20035;-79
2021/11/20 11:06:45;;;;;;;17.30;16.30;;;17.30;99.90;;;;;;5076134;28;20473;-79
2021/11/20 11:09:21;;;;;;;18.02;16.92;;;17.30;99.90;;;;;;5077566;28;20381;-78
2021/11/20 11:12:23;;;;;;;17.20;16.27;;;17.30;99.90;;;;;;5076202;28;20021;-79
2021/11/20 11:15:18;;;;;;;17.15;16.17;;;17.20;99.90;;;;;;5058098;28;20122;-80
2021/11/20 11:18:13;;;;;;;17.55;16.60;;;17.20;99.90;;;;;;5075673;28;20051;-78
2021/11/20 11:21:13;;;;;;;17.80;16.75;;;17.20;99.90;;;;;;5077441;28;20120;-79
2021/11/20 11:23:59;;;;;;;18.35;17.15;;;17.10;99.90;;;;;;5077083;28;20059;-77
2021/11/20 11:26:29;;;;;;;17.58;16.45;;;17.10;99.90;;;;;;5075833;28;20504;-78
2021/11/20 11:29:21;;;;;;;17.90;16.90;;;17.20;99.90;;;;;;5075137;28;20488;-77
2021/11/20 11:31:49;;;;;;;16.98;16.17;;;17.20;99.90;;;;;;5061871;28;20063;-79
2021/11/20 11:34:16;;;;;;;18.48;17.48;;;17.10;99.90;;;;;;5075758;28;20176;-78
2021/11/20 11:36:58;;;;;;;18.30;17.20;;;17.10;99.90;;;;;;5075629;28;20017;-79
2021/11/20 11:39:40;;;;;;;19.10;17.80;;;17.10;99.90;;;;;;5076938;28;20020;-79
2021/11/20 11:42:16;;;;;;;18.55;17.60;;;17.10;99.90;;;;;;5075803;28;20120;-79
2021/11/20 11:45:13;;;;;;;18.80;17.60;;;17.10;99.90;;;;;;5075528;28;20021;-79
2021/11/20 11:48:11;;;;;;;18.10;17.13;;;17.00;99.90;;;;;;5075853;28;20477;-79
2021/11/20 11:51:04;;;;;;;18.52;17.42;;;17.10;99.90;;;;;;5076315;28;20021;-80
2021/11/20 11:53:53;;;;;;;19.23;18.15;;;17.10;99.90;;;;;;5075787;28;20021;-78
2021/11/20 11:56:35;;;;;;;19.50;18.38;;;17.00;99.90;;;;;;5076035;28;20558;-79
2021/11/20 11:59:36;;;;;;;18.45;17.55;;;17.00;99.90;;;;;;5076581;28;20046;-79
2021/11/20 12:02:19;;;;;;;19.58;18.45;;;17.10;99.90;;;;;;5075832;28;20032;-80
2021/11/20 12:04:51;;;;;;;19.17;18.20;;;17.10;99.90;;;;;;5076464;28;20040;-80
2021/11/20 12:07:45;;;;;;;19.20;18.20;;;17.10;99.90;;;;;;5058489;28;20063;-79
2021/11/20 12:10:12;;;;;;;19.42;18.45;;;17.00;99.90;;;;;;5075093;28;20035;-79
2021/11/20 12:12:56;;;;;;;19.17;18.13;;;17.10;99.90;;;;;;5076325;28;20021;-79
2021/11/20 12:15:34;;;;;;;19.05;18.00;;;17.10;99.90;;;;;;5061242;28;20058;-78
2021/11/20 12:18:15;;;;;;;19.05;18.05;;;17.10;99.90;;;;;;5076137;28;20043;-78
2021/11/20 12:21:21;;;;;;;20.27;19.13;;;17.10;99.90;;;;;;5075837;28;20020;-79
2021/11/20 12:24:10;;;;;;;20.23;19.10;;;17.10;99.90;;;;;;5074331;28;20036;-78
2021/11/20 12:26:45;;;;;;;19.63;18.73;;;17.10;99.90;;;;;;5074731;28;20024;-78
2021/11/20 12:29:27;;;;;;;19.60;18.65;;;17.10;99.90;;;;;;5074218;28;20155;-78
2021/11/20 12:32:32;;;;;;;19.55;18.55;;;17.10;99.90;;;;;;5075669;28;20017;-79
2021/11/20 12:35:16;;;;;;;18.10;17.30;;;17.10;99.90;;;;;;5074958;28;20024;-78
2021/11/20 12:38:10;;;;;;;19.50;18.20;;;17.10;99.90;;;;;;5074077;28;20107;-78
2021/11/20 12:41:12;;;;;;;19.10;18.10;;;17.10;99.90;;;;;;5075468;28;20016;-77
2021/11/20 12:44:03;;;;;;;19.52;18.40;;;17.10;99.90;;;;;;5074031;28;20075;-77
2021/11/20 12:46:54;;;;;;;19.40;18.50;;;17.00;99.90;;;;;;5074199;28;20028;-77
2021/11/20 12:49:38;;;;;;;18.45;17.52;;;17.00;99.90;;;;;;5075309;28;20420;-78
2021/11/20 12:52:27;;;;;;;18.40;17.42;;;16.90;99.90;;;;;;5074198;28;20162;-76
2021/11/20 12:55:16;;;;;;;17.95;16.92;;;16.90;99.90;;;;;;5073953;28;20071;-77
2021/11/20 12:57:46;;;;;;;17.73;17.02;;;16.90;99.90;;;;;;5072983;28;20024;-78
2021/11/20 13:00:31;;;;;;;18.20;17.30;;;16.90;99.90;;;;;;5073635;28;20025;-78
2021/11/20 13:03:09;;;;;;;18.63;17.60;;;16.90;99.90;;;;;;5075152;28;20112;-77
2021/11/20 13:05:49;;;;;;;19.17;18.17;;;16.90;99.90;;;;;;5073854;28;20069;-79
2021/11/20 13:08:23;;;;;;;18.73;17.83;;;16.90;99.90;;;;;;5075686;28;20063;-78
2021/11/20 13:11:23;;;;;;;19.20;18.30;;;16.90;99.90;;;;;;5075130;28;20032;-77
2021/11/20 13:14:21;;;;;;;20.33;19.30;;;16.80;99.90;;;;;;5075381;28;20031;-77
2021/11/20 13:17:00;;;;;;;19.75;18.75;;;16.80;99.90;;;;;;5073948;28;20064;-77